createdAt,value
2018-07-26T00:01:05.014Z,100962.33
2018-07-26T00:03:33.292Z,100966.09
2018-07-26T00:06:01.529Z,100962.49
2018-07-26T00:08:29.800Z,100956.38
2018-07-26T00:10:58.036Z,100958.70
2018-07-26T00:13:26.259Z,100960.48
2018-07-26T00:15:54.474Z,100965.28
2018-07-26T00:18:22.688Z,100964.09
2018-07-26T00:20:50.922Z,100970.03
2018-07-26T00:23:19.194Z,100972.64
2018-07-26T00:25:47.469Z,100970.38
2018-07-26T00:28:15.752Z,100966.97
2018-07-26T00:30:44.049Z,100968.50
2018-07-26T00:33:12.276Z,100965.65
2018-07-26T00:35:40.504Z,100965.03
2018-07-26T00:38:08.750Z,100967.34
2018-07-26T00:40:36.997Z,100971.19
2018-07-26T00:43:05.383Z,100965.77
2018-07-26T00:45:33.672Z,100961.50
2018-07-26T00:48:01.964Z,100965.65
2018-07-26T00:50:30.233Z,100943.89
2018-07-26T00:52:58.484Z,100962.23
2018-07-26T00:55:26.700Z,100970.05
2018-07-26T00:57:54.928Z,100962.58
2018-07-26T01:00:23.189Z,100966.79
2018-07-26T01:02:51.620Z,100966.17
2018-07-26T01:05:19.984Z,100971.58
2018-07-26T01:07:48.276Z,100966.79
2018-07-26T01:10:16.494Z,100973.70
2018-07-26T01:12:44.732Z,100969.22
2018-07-26T01:15:13.056Z,100971.80
2018-07-26T01:17:41.289Z,100965.86
2018-07-26T01:20:09.520Z,100965.65
2018-07-26T01:22:37.740Z,100965.43
2018-07-26T01:25:06.082Z,100965.22
2018-07-26T01:27:34.327Z,100949.55
2018-07-26T01:30:02.651Z,100957.75
2018-07-26T01:32:30.930Z,100959.23
2018-07-26T01:34:59.157Z,100950.13
2018-07-26T01:37:27.393Z,100957.42
2018-07-26T01:39:55.636Z,100956.59
2018-07-26T01:42:24.000Z,100953.88
2018-07-26T01:44:52.211Z,100959.51
2018-07-26T01:47:20.424Z,100962.34
2018-07-26T01:49:48.692Z,100951.70
2018-07-26T01:52:16.942Z,100955.85
2018-07-26T01:54:45.192Z,100958.00
2018-07-26T01:57:13.420Z,100958.31
2018-07-26T01:59:41.633Z,100954.25
2018-07-26T02:02:09.922Z,100954.71
2018-07-26T02:04:38.124Z,100962.42
2018-07-26T02:07:06.332Z,100961.19
2018-07-26T02:09:34.611Z,100961.25
2018-07-26T02:12:02.841Z,100958.76
2018-07-26T02:14:33.844Z,100957.93
2018-07-26T02:17:02.072Z,100965.11
2018-07-26T02:19:30.289Z,100965.02
2018-07-26T02:21:58.544Z,100958.90
2018-07-26T02:24:26.773Z,100958.73
2018-07-26T02:26:54.985Z,100957.78
2018-07-26T02:29:23.208Z,100954.77
2018-07-26T02:31:51.400Z,100950.67
2018-07-26T02:34:19.621Z,100961.47
2018-07-26T02:36:47.879Z,100952.44
2018-07-26T02:39:16.064Z,100947.78
2018-07-26T02:41:44.301Z,100961.08
2018-07-26T02:44:12.537Z,100963.16
2018-07-26T02:46:40.757Z,100962.02
2018-07-26T02:49:09.001Z,100959.77
2018-07-26T02:51:37.233Z,100964.25
2018-07-26T02:54:05.597Z,100954.18
2018-07-26T02:56:34.175Z,100960.20
2018-07-26T02:59:02.388Z,100962.59
2018-07-26T03:01:30.961Z,100963.33
2018-07-26T03:03:59.181Z,100964.09
2018-07-26T03:06:27.412Z,100965.85
2018-07-26T03:08:55.676Z,100958.48
2018-07-26T03:11:23.912Z,100960.14
2018-07-26T03:13:52.174Z,100962.84
2018-07-26T03:16:20.437Z,100957.02
2018-07-26T03:18:48.644Z,100958.69
2018-07-26T03:21:16.881Z,100965.44
2018-07-26T03:23:45.141Z,100963.47
2018-07-26T03:26:13.384Z,100967.31
2018-07-26T03:28:41.636Z,100962.33
2018-07-26T03:31:10.237Z,100963.16
2018-07-26T03:33:38.476Z,100964.30
2018-07-26T03:36:06.709Z,100969.28
2018-07-26T03:38:34.956Z,100965.58
2018-07-26T03:41:03.184Z,100971.70
2018-07-26T03:43:31.448Z,100964.75
2018-07-26T03:45:59.659Z,100966.10
2018-07-26T03:48:27.888Z,100972.95
2018-07-26T03:50:56.116Z,100968.66
2018-07-26T03:53:24.348Z,100965.68
2018-07-26T03:55:52.576Z,100966.41
2018-07-26T03:58:20.824Z,100965.69
2018-07-26T04:00:49.056Z,100970.15
2018-07-26T04:03:17.279Z,100969.31
2018-07-26T04:05:45.488Z,100968.66
2018-07-26T04:08:13.702Z,100967.00
2018-07-26T04:10:41.926Z,100976.24
2018-07-26T04:13:10.148Z,100975.45
2018-07-26T04:15:38.381Z,100973.68
2018-07-26T04:18:07.236Z,100973.55
2018-07-26T04:20:35.747Z,100982.27
2018-07-26T04:23:03.985Z,100982.06
2018-07-26T04:25:32.536Z,100986.94
2018-07-26T04:28:01.444Z,100991.92
2018-07-26T04:30:29.700Z,100986.31
2018-07-26T04:32:57.921Z,100996.59
2018-07-26T04:35:26.132Z,100991.72
2018-07-26T04:37:54.416Z,100989.74
2018-07-26T04:40:22.632Z,100989.22
2018-07-26T04:42:50.881Z,100998.36
2018-07-26T04:45:19.088Z,100997.22
2018-07-26T04:47:47.333Z,100998.27
2018-07-26T04:50:15.559Z,100990.05
2018-07-26T04:52:43.821Z,100995.91
2018-07-26T04:55:12.029Z,100991.44
2018-07-26T04:57:40.288Z,100985.20
2018-07-26T05:00:08.668Z,100986.14
2018-07-26T05:02:37.172Z,100983.83
2018-07-26T05:05:06.000Z,100983.93
2018-07-26T05:07:34.652Z,100978.63
2018-07-26T05:10:02.904Z,100985.17
2018-07-26T05:12:31.157Z,100980.39
2018-07-26T05:14:59.376Z,100989.42
2018-07-26T05:17:27.640Z,100983.82
2018-07-26T05:19:55.860Z,100986.59
2018-07-26T05:22:24.085Z,100986.17
2018-07-26T05:24:52.309Z,100986.27
2018-07-26T05:27:20.532Z,100989.80
2018-07-26T05:29:48.800Z,100985.86
2018-07-26T05:32:18.309Z,100994.27
2018-07-26T05:34:46.570Z,100994.38
2018-07-26T05:37:14.788Z,100997.55
2018-07-26T05:39:43.075Z,100999.31
2018-07-26T05:42:11.348Z,101002.42
2018-07-26T05:44:39.620Z,101002.28
2018-07-26T05:47:07.929Z,101002.17
2018-07-26T05:49:36.172Z,100993.64
2018-07-26T05:52:04.408Z,100996.27
2018-07-26T05:54:32.705Z,101001.52
2018-07-26T05:57:00.925Z,101001.52
2018-07-26T05:59:29.140Z,101007.17
2018-07-26T06:01:57.592Z,101005.94
2018-07-26T06:04:25.885Z,101004.97
2018-07-26T06:06:54.056Z,101006.53
2018-07-26T06:09:22.296Z,101010.59
2018-07-26T06:11:50.540Z,101007.58
2018-07-26T06:14:18.788Z,101010.90
2018-07-26T06:16:47.008Z,101011.52
2018-07-26T06:19:15.225Z,101011.52
2018-07-26T06:21:43.448Z,101009.05
2018-07-26T06:24:11.684Z,101007.76
2018-07-26T06:26:39.958Z,101020.02
2018-07-26T06:29:08.200Z,101010.88
2018-07-26T06:31:36.429Z,101001.72
2018-07-26T06:34:04.821Z,101003.37
2018-07-26T06:36:33.102Z,101004.52
2018-07-26T06:39:01.325Z,101000.16
2018-07-26T06:41:29.645Z,100999.95
2018-07-26T06:43:57.901Z,100999.52
2018-07-26T06:46:26.142Z,100996.60
2018-07-26T06:48:54.425Z,100998.02
2018-07-26T06:51:22.701Z,100998.95
2018-07-26T06:53:50.924Z,100996.44
2018-07-26T06:56:19.128Z,101003.69
2018-07-26T06:58:47.416Z,101001.15
2018-07-26T07:01:16.026Z,100999.36
2018-07-26T07:03:44.313Z,101002.56
2018-07-26T07:06:12.533Z,101003.45
2018-07-26T07:08:40.884Z,101001.37
2018-07-26T07:11:09.464Z,101001.24
2018-07-26T07:13:37.724Z,101003.21
2018-07-26T07:16:06.065Z,100993.92
2018-07-26T07:18:34.428Z,100993.28
2018-07-26T07:21:02.643Z,100997.52
2018-07-26T07:23:30.872Z,100995.21
2018-07-26T07:25:59.118Z,100993.95
2018-07-26T07:28:27.376Z,100991.30
2018-07-26T07:30:55.664Z,100988.47
2018-07-26T07:33:23.985Z,100994.80
2018-07-26T07:35:52.230Z,100987.59
2018-07-26T07:38:20.490Z,100981.19
2018-07-26T07:40:48.716Z,100983.24
2018-07-26T07:43:17.004Z,100988.52
2018-07-26T07:45:45.244Z,100991.10
2018-07-26T07:48:13.440Z,100988.84
2018-07-26T07:50:41.680Z,100981.11
2018-07-26T07:53:09.912Z,100976.60
2018-07-26T07:55:38.124Z,100977.57
2018-07-26T07:58:06.553Z,100979.66
2018-07-26T08:00:34.793Z,100970.25
2018-07-26T08:03:03.041Z,100965.45
2018-07-26T08:05:31.277Z,100971.30
2018-07-26T08:07:59.497Z,100970.94
2018-07-26T08:10:27.720Z,100972.76
2018-07-26T08:12:55.945Z,100973.11
2018-07-26T08:15:24.141Z,100964.84
2018-07-26T08:17:52.384Z,100974.48
2018-07-26T08:20:20.592Z,100975.70
2018-07-26T08:22:48.804Z,100975.70
2018-07-26T08:25:17.072Z,100974.16
2018-07-26T08:27:45.284Z,100981.84
2018-07-26T08:30:13.546Z,100977.11
2018-07-26T08:32:41.788Z,100973.42
2018-07-26T08:35:10.059Z,100974.30
2018-07-26T08:37:38.252Z,100963.16
2018-07-26T08:40:06.750Z,100980.97
2018-07-26T08:42:34.956Z,100975.21
2018-07-26T08:45:03.215Z,100962.70
2018-07-26T08:47:31.756Z,100974.34
2018-07-26T08:49:59.966Z,100976.23
2018-07-26T08:52:28.176Z,100976.23
2018-07-26T08:54:56.477Z,100976.83
2018-07-26T08:57:24.693Z,100974.27
2018-07-26T08:59:53.001Z,100973.06
2018-07-26T09:02:21.454Z,100967.75
2018-07-26T09:04:49.721Z,100968.95
2018-07-26T09:07:17.985Z,100973.69
2018-07-26T09:09:46.297Z,100973.80
2018-07-26T09:12:14.468Z,100965.27
2018-07-26T09:14:42.697Z,100969.22
2018-07-26T09:17:10.990Z,100964.49
2018-07-26T09:19:39.240Z,100969.89
2018-07-26T09:22:07.435Z,100968.64
2018-07-26T09:24:35.814Z,100963.64
2018-07-26T09:27:04.009Z,100958.28
2018-07-26T09:29:32.281Z,100962.42
2018-07-26T09:32:00.474Z,100958.98
2018-07-26T09:34:28.705Z,100961.53
2018-07-26T09:36:56.916Z,100956.45
2018-07-26T09:39:25.129Z,100951.42
2018-07-26T09:41:53.350Z,100951.25
2018-07-26T09:44:21.581Z,100949.13
2018-07-26T09:46:49.821Z,100944.91
2018-07-26T09:49:18.174Z,100941.73
2018-07-26T09:51:46.493Z,100945.37
2018-07-26T09:54:14.708Z,100946.02
2018-07-26T09:56:42.916Z,100945.34
2018-07-26T09:59:11.119Z,100939.50
2018-07-26T10:01:40.281Z,100938.78
2018-07-26T10:04:08.488Z,100934.00
2018-07-26T10:06:36.680Z,100934.14
2018-07-26T10:09:09.148Z,100933.75
2018-07-26T10:11:37.444Z,100926.23
2018-07-26T10:14:05.742Z,100925.85
2018-07-26T10:16:34.019Z,100933.84
2018-07-26T10:19:02.308Z,100929.10
2018-07-26T10:21:30.562Z,100932.48
2018-07-26T10:23:58.976Z,100927.20
2018-07-26T10:26:27.180Z,100926.24
2018-07-26T10:28:55.456Z,100924.47
2018-07-26T10:31:23.684Z,100924.34
2018-07-26T10:33:51.929Z,100920.78
2018-07-26T10:36:20.197Z,100917.93
2018-07-26T10:38:48.414Z,100913.45
2018-07-26T10:41:16.654Z,100910.83
2018-07-26T10:43:44.865Z,100911.02
2018-07-26T10:46:13.088Z,100905.38
2018-07-26T10:48:41.338Z,100902.13
2018-07-26T10:51:09.553Z,100904.87
2018-07-26T10:53:37.760Z,100896.01
2018-07-26T10:56:06.407Z,100901.59
2018-07-26T10:58:34.720Z,100893.10
2018-07-26T11:01:02.948Z,100894.12
2018-07-26T11:03:31.317Z,100901.41
2018-07-26T11:05:59.732Z,100895.86
2018-07-26T11:08:27.996Z,100895.67
2018-07-26T11:10:56.220Z,100897.09
2018-07-26T11:13:24.433Z,100889.52
2018-07-26T11:15:52.676Z,100889.84
2018-07-26T11:18:20.940Z,100892.59
2018-07-26T11:20:49.188Z,100885.95
2018-07-26T11:23:17.404Z,100892.19
2018-07-26T11:25:45.698Z,100886.23
2018-07-26T11:28:13.852Z,100883.55
2018-07-26T11:30:42.125Z,100877.56
2018-07-26T11:33:10.484Z,100875.67
2018-07-26T11:35:38.728Z,100877.87
2018-07-26T11:38:06.983Z,100870.75
2018-07-26T11:40:35.216Z,100868.77
2018-07-26T11:43:03.478Z,100872.61
2018-07-26T11:45:31.732Z,100867.16
2018-07-26T11:47:59.960Z,100864.15
2018-07-26T11:50:28.160Z,100861.91
2018-07-26T11:52:56.369Z,100856.08
2018-07-26T11:55:24.580Z,100857.91
2018-07-26T11:57:52.847Z,100854.33
2018-07-26T12:00:21.048Z,100852.70
2018-07-26T12:02:49.264Z,100853.19
2018-07-26T12:05:17.472Z,100846.27
2018-07-26T12:07:45.688Z,100855.00
2018-07-26T12:10:13.904Z,100840.77
2018-07-26T12:12:42.144Z,100841.84
2018-07-26T12:15:10.565Z,100836.52
2018-07-26T12:17:38.784Z,100839.93
2018-07-26T12:20:07.046Z,100828.25
2018-07-26T12:22:35.244Z,100832.75
2018-07-26T12:25:03.460Z,100834.88
2018-07-26T12:27:31.672Z,100828.77
2018-07-26T12:29:59.881Z,100826.23
2018-07-26T12:32:28.144Z,100820.02
2018-07-26T12:34:56.341Z,100825.55
2018-07-26T12:37:24.548Z,100826.12
2018-07-26T12:39:52.756Z,100826.95
2018-07-26T12:42:20.997Z,100825.27
2018-07-26T12:44:49.249Z,100812.67
2018-07-26T12:47:17.466Z,100806.66
2018-07-26T12:49:45.689Z,100806.13
2018-07-26T12:52:18.472Z,100800.56
2018-07-26T12:54:46.797Z,100803.97
2018-07-26T12:57:15.060Z,100802.95
2018-07-26T12:59:43.284Z,100795.06
2018-07-26T13:02:11.492Z,100778.80
2018-07-26T13:04:39.740Z,100787.84
2018-07-26T13:07:07.985Z,100791.19
2018-07-26T13:09:36.200Z,100785.53
2018-07-26T13:12:04.464Z,100780.77
2018-07-26T13:14:32.772Z,100783.45
2018-07-26T13:17:01.045Z,100777.64
2018-07-26T13:19:29.310Z,100774.70
2018-07-26T13:21:57.540Z,100774.91
2018-07-26T13:24:25.752Z,100764.98
2018-07-26T13:26:54.004Z,100768.72
2018-07-26T13:29:22.298Z,100768.82
2018-07-26T13:31:50.508Z,100763.99
2018-07-26T13:34:18.747Z,100765.13
2018-07-26T13:36:46.972Z,100768.52
2018-07-26T13:39:15.193Z,100763.94
2018-07-26T13:41:43.436Z,100764.20
2018-07-26T13:44:11.668Z,100760.34
2018-07-26T13:46:39.861Z,100755.85
2018-07-26T13:49:08.068Z,100752.37
2018-07-26T13:51:36.292Z,100750.97
2018-07-26T13:54:04.552Z,100754.48
2018-07-26T13:56:32.760Z,100755.20
2018-07-26T13:59:00.983Z,100755.35
2018-07-26T14:01:29.211Z,100749.13
2018-07-26T14:03:57.451Z,100750.55
2018-07-26T14:06:25.712Z,100753.08
2018-07-26T14:08:53.912Z,100751.50
2018-07-26T14:11:22.108Z,100753.44
2018-07-26T14:13:50.312Z,100747.18
2018-07-26T14:16:18.760Z,100748.28
2018-07-26T14:18:46.972Z,100742.78
2018-07-26T14:21:15.252Z,100742.51
2018-07-26T14:23:43.457Z,100736.45
2018-07-26T14:26:12.736Z,100733.69
2018-07-26T14:28:41.445Z,100731.65
2018-07-26T14:31:10.038Z,100732.56
2018-07-26T14:33:38.302Z,100722.28
2018-07-26T14:36:13.217Z,100727.38
2018-07-26T14:38:41.476Z,100715.61
2018-07-26T14:41:09.716Z,100716.86
2018-07-26T14:43:38.531Z,100716.74
2018-07-26T14:46:07.059Z,100711.20
2018-07-26T14:48:35.272Z,100710.08
2018-07-26T14:51:03.586Z,100704.07
2018-07-26T14:53:31.816Z,100715.78
2018-07-26T14:56:00.005Z,100712.41
2018-07-26T14:58:28.220Z,100709.53
2018-07-26T15:00:56.504Z,100708.84
2018-07-26T15:03:24.720Z,100710.91
2018-07-26T15:05:53.008Z,100715.41
2018-07-26T15:08:21.244Z,100716.56
2018-07-26T15:10:49.444Z,100717.20
2018-07-26T15:13:17.644Z,100718.91
2018-07-26T15:15:45.881Z,100720.34
2018-07-26T15:18:14.117Z,100723.64
2018-07-26T15:20:42.370Z,100718.18
2018-07-26T15:23:10.604Z,100724.24
2018-07-26T15:25:38.840Z,100726.13
2018-07-26T15:28:07.052Z,100717.08
2018-07-26T15:30:35.269Z,100717.36
2018-07-26T15:33:03.539Z,100714.66
2018-07-26T15:35:31.737Z,100717.63
2018-07-26T15:37:59.946Z,100709.10
2018-07-26T15:40:28.193Z,100708.07
2018-07-26T15:42:56.425Z,100702.13
2018-07-26T15:45:24.752Z,100702.27
2018-07-26T15:47:52.976Z,100692.38
2018-07-26T15:50:21.189Z,100693.50
2018-07-26T15:52:49.395Z,100692.42
2018-07-26T15:55:17.618Z,100695.45
2018-07-26T15:57:45.884Z,100686.99
2018-07-26T16:00:14.093Z,100693.03
2018-07-26T16:02:42.320Z,100690.78
2018-07-26T16:05:10.569Z,100687.75
2018-07-26T16:07:38.772Z,100691.13
2018-07-26T16:10:07.927Z,100687.42
2018-07-26T16:12:36.281Z,100687.83
2018-07-26T16:15:07.157Z,100683.84
2018-07-26T16:17:35.492Z,100684.75
2018-07-26T16:20:04.421Z,100680.70
2018-07-26T16:22:32.638Z,100684.86
2018-07-26T16:25:00.848Z,100687.05
2018-07-26T16:27:29.060Z,100685.44
2018-07-26T16:29:57.269Z,100692.30
2018-07-26T16:32:25.469Z,100693.10
2018-07-26T16:34:53.701Z,100689.84
2018-07-26T16:37:21.924Z,100692.25
2018-07-26T16:39:50.205Z,100684.61
2018-07-26T16:42:18.325Z,100684.59
2018-07-26T16:44:46.571Z,100689.25
2018-07-26T16:47:14.784Z,100687.03
2018-07-26T16:49:42.976Z,100690.31
2018-07-26T16:52:11.244Z,100688.09
2018-07-26T16:54:39.460Z,100690.25
2018-07-26T16:57:07.748Z,100688.30
2018-07-26T16:59:35.956Z,100689.94
2018-07-26T17:02:04.220Z,100691.81
2018-07-26T17:04:32.476Z,100684.15
2018-07-26T17:07:00.733Z,100685.80
2018-07-26T17:09:28.948Z,100689.60
2018-07-26T17:11:57.184Z,100689.86
2018-07-26T17:14:25.404Z,100692.30
2018-07-26T17:16:53.628Z,100693.67
2018-07-26T17:19:21.980Z,100690.59
2018-07-26T17:21:50.188Z,100693.81
2018-07-26T17:24:18.460Z,100692.45
2018-07-26T17:26:46.672Z,100698.69
2018-07-26T17:29:14.938Z,100699.77
2018-07-26T17:31:43.215Z,100706.59
2018-07-26T17:34:11.424Z,100701.39
2018-07-26T17:36:39.696Z,100697.30
2018-07-26T17:39:09.360Z,100701.11
2018-07-26T17:41:37.616Z,100693.97
2018-07-26T17:44:06.154Z,100693.64
2018-07-26T17:46:34.625Z,100698.01
2018-07-26T17:49:02.852Z,100695.52
2018-07-26T17:51:31.318Z,100701.75
2018-07-26T17:53:59.580Z,100695.17
2018-07-26T17:56:27.817Z,100699.76
2018-07-26T17:58:56.057Z,100704.65
2018-07-26T18:01:24.324Z,100712.27
2018-07-26T18:03:52.537Z,100724.82
2018-07-26T18:06:20.752Z,100719.91
2018-07-26T18:08:48.976Z,100718.80
2018-07-26T18:11:17.240Z,100714.14
2018-07-26T18:13:45.538Z,100713.30
2018-07-26T18:16:13.757Z,100717.94
2018-07-26T18:18:41.981Z,100718.73
2018-07-26T18:21:10.202Z,100713.80
2018-07-26T18:23:38.437Z,100714.31
2018-07-26T18:26:06.715Z,100711.02
2018-07-26T18:28:34.988Z,100711.56
2018-07-26T18:31:03.209Z,100718.89
2018-07-26T18:33:31.432Z,100714.17
2018-07-26T18:35:59.644Z,100717.45
2018-07-26T18:38:27.923Z,100717.39
2018-07-26T18:40:56.122Z,100713.20
2018-07-26T18:43:24.381Z,100718.88
2018-07-26T18:45:52.572Z,100717.49
2018-07-26T18:48:20.985Z,100717.72
2018-07-26T18:50:49.184Z,100725.00
2018-07-26T18:53:17.428Z,100728.80
2018-07-26T18:55:45.652Z,100730.10
2018-07-26T18:58:13.895Z,100740.39
2018-07-26T19:00:42.120Z,100746.63
2018-07-26T19:03:10.356Z,100742.80
2018-07-26T19:05:38.604Z,100753.38
2018-07-26T19:08:07.154Z,100756.31
2018-07-26T19:10:35.426Z,100754.09
2018-07-26T19:13:03.686Z,100758.39
2018-07-26T19:15:31.904Z,100760.83
2018-07-26T19:18:00.164Z,100772.51
2018-07-26T19:20:28.372Z,100772.47
2018-07-26T19:22:56.588Z,100777.02
2018-07-26T19:25:24.834Z,100783.52
2018-07-26T19:27:53.071Z,100789.51
2018-07-26T19:30:21.293Z,100785.34
2018-07-26T19:32:49.492Z,100788.77
2018-07-26T19:35:17.753Z,100787.95
2018-07-26T19:37:46.007Z,100797.46
2018-07-26T19:40:14.385Z,100791.69
2018-07-26T19:42:42.889Z,100791.06
2018-07-26T19:45:11.889Z,100797.00
2018-07-26T19:47:40.409Z,100804.09
2018-07-26T19:50:08.984Z,100796.45
2018-07-26T19:52:37.216Z,100796.66
2018-07-26T19:55:07.165Z,100805.31
2018-07-26T19:57:35.401Z,100805.56
2018-07-26T20:00:03.992Z,100802.72
2018-07-26T20:02:32.253Z,100799.94
2018-07-26T20:05:00.477Z,100799.90
2018-07-26T20:07:28.717Z,100800.88
2018-07-26T20:09:56.956Z,100801.11
2018-07-26T20:12:25.125Z,100801.01
2018-07-26T20:14:53.383Z,100812.38
2018-07-26T20:17:21.592Z,100809.56
2018-07-26T20:19:49.819Z,100811.68
2018-07-26T20:22:18.058Z,100807.75
2018-07-26T20:24:46.272Z,100807.94
2018-07-26T20:27:14.488Z,100810.88
2018-07-26T20:29:42.712Z,100806.41
2018-07-26T20:32:10.912Z,100810.89
2018-07-26T20:34:39.209Z,100806.98
2018-07-26T20:37:07.381Z,100809.59
2018-07-26T20:39:35.604Z,100809.78
2018-07-26T20:42:03.861Z,100808.64
2018-07-26T20:44:32.176Z,100812.12
2018-07-26T20:47:00.537Z,100816.16
2018-07-26T20:49:28.752Z,100818.28
2018-07-26T20:51:56.993Z,100823.13
2018-07-26T20:54:25.192Z,100822.30
2018-07-26T20:56:53.412Z,100818.73
2018-07-26T20:59:21.728Z,100821.10
2018-07-26T21:01:49.934Z,100823.47
2018-07-26T21:04:18.175Z,100823.12
2018-07-26T21:06:46.368Z,100825.22
2018-07-26T21:09:14.928Z,100823.51
2018-07-26T21:11:43.958Z,100828.89
2018-07-26T21:14:12.144Z,100829.80
2018-07-26T21:16:40.368Z,100839.02
2018-07-26T21:19:08.592Z,100839.81
2018-07-26T21:21:36.801Z,100839.81
2018-07-26T21:24:05.211Z,100838.16
2018-07-26T21:26:33.366Z,100844.06
2018-07-26T21:29:01.568Z,100843.94
2018-07-26T21:31:29.844Z,100845.77
2018-07-26T21:33:58.056Z,100852.23
2018-07-26T21:36:26.268Z,100848.09
2018-07-26T21:38:54.468Z,100845.84
2018-07-26T21:41:22.724Z,100857.17
2018-07-26T21:43:51.001Z,100853.27
2018-07-26T21:46:19.208Z,100852.12
2018-07-26T21:48:47.421Z,100846.86
2018-07-26T21:51:15.670Z,100853.05
2018-07-26T21:53:43.884Z,100855.94
2018-07-26T21:56:12.090Z,100855.31
2018-07-26T21:58:40.292Z,100857.95
2018-07-26T22:01:08.541Z,100857.66
2018-07-26T22:03:36.829Z,100862.49
2018-07-26T22:06:05.208Z,100870.83
2018-07-26T22:08:33.443Z,100868.34
2018-07-26T22:11:01.678Z,100867.75
2018-07-26T22:13:29.896Z,100869.31
2018-07-26T22:15:58.220Z,100872.48
2018-07-26T22:18:26.383Z,100870.53
2018-07-26T22:20:54.609Z,100870.98
2018-07-26T22:23:22.854Z,100873.34
2018-07-26T22:25:51.366Z,100873.56
2018-07-26T22:28:19.858Z,100881.44
2018-07-26T22:30:48.444Z,100889.20
2018-07-26T22:33:16.668Z,100881.53
2018-07-26T22:35:44.900Z,100881.16
2018-07-26T22:38:13.620Z,100881.09
2018-07-26T22:40:41.895Z,100882.93
2018-07-26T22:43:10.164Z,100884.22
2018-07-26T22:45:38.906Z,100882.49
2018-07-26T22:48:07.388Z,100885.95
2018-07-26T22:50:35.736Z,100878.28
2018-07-26T22:53:03.952Z,100880.99
2018-07-26T22:55:32.152Z,100881.22
2018-07-26T22:58:00.658Z,100883.36
2018-07-26T23:00:29.233Z,100888.19
2018-07-26T23:02:57.484Z,100883.81
2018-07-26T23:05:25.720Z,100885.09
2018-07-26T23:07:54.220Z,100880.73
2018-07-26T23:10:22.404Z,100886.16
2018-07-26T23:12:50.612Z,100880.33
2018-07-26T23:15:18.834Z,100889.29
2018-07-26T23:17:47.064Z,100885.15
2018-07-26T23:20:15.310Z,100881.84
2018-07-26T23:22:43.515Z,100882.92
2018-07-26T23:25:11.749Z,100885.03
2018-07-26T23:27:39.988Z,100886.54
2018-07-26T23:30:11.170Z,100880.97
2018-07-26T23:32:39.524Z,100877.84
2018-07-26T23:35:07.970Z,100879.88
2018-07-26T23:37:36.230Z,100885.66
2018-07-26T23:40:06.197Z,100883.70
2018-07-26T23:42:34.401Z,100880.87
2018-07-26T23:45:02.653Z,100877.26
2018-07-26T23:47:30.878Z,100887.80
2018-07-26T23:49:59.088Z,100881.47
2018-07-26T23:52:27.304Z,100871.48
2018-07-26T23:54:55.520Z,100882.70
2018-07-26T23:57:23.712Z,100872.68
2018-07-26T23:59:51.932Z,100884.20
